Registration

All data are given in time UTC except for the places where it is expressly stated to the contrary, The data provided on this website are informative!!!


Actual Weather
 
General weather forecast

Fog is forecasted with visibility limits from 800 m down to 400 m.
lubelmalmazpodkpodlswiwarFOG (st.1)Restriction in air transport.
Weather - Poland
11°C Szczecin 7°C Suwałki 7°C Warszawa 5°C Poznan
3°C Opole 5°C Kraków 4°C Rzeszów
More cities in Poland

Weather - Europe
13°C Berlin 13°C Paryz 11°C Bruksela 9°C Oslo
7°C Praga 10°C Zagrzeb
More cities in Europe

METAR EPCE 010030Z 17007KT 130V210 6000 OVC008 05/04 Q1020 RMK 054 090 8/8=
METAR EPDA 010030Z 15010KT 080V190 9999 OVC008 08/07 Q1019 RMK 081 090 8/8=
METAR EPDE 010030Z AUTO 10002KT 5000 05/05 Q1024 RMK 052 095 ///=
METAR EPIR 010030Z AUTO 11014KT VV008 06/04 Q1022 RMK 057 088 ///=
METAR EPKS 312330Z 11012KT 0300 R29/1200N FG OVC002 05/05 Q1021 RMK 051 100 8/8=
METAR EPLK 010030Z 20005KT 140V230 5000 BR OVC004 05/05 Q1023 RMK 050 100 8/8=
METAR EPLY 010030Z AUTO 15006KT 06/05 Q1023 RMK 063 094 ///=
METAR EPMB 010030Z 17011KT 9999 OVC008 07/06 Q1022 RMK 069 093 8/8=
METAR EPMI 010030Z 15009KT 6000 OVC006 08/07 Q1019 RMK 079 095 8/8=
METAR EPMM 010030Z 11003KT 0600 R26/0700N FG VV000 01/01 Q1024 RMK 011 100 ///=
METAR EPOK 010030Z 17010KT 9999 BKN010 07/05 Q1021 RMK 067 087 7/7=
METAR EPPR 010030Z AUTO 16006KT VV012 07/04 Q1022 RMK 066 083 ///=
METAR EPPW 010030Z 14010KT 2000 BR OVC003 06/06 Q1021 RMK 057 100 8/8=
METAR EPSN 010000Z 15010KT 9999 OVC007 09/08 Q1018 RMK 087 096 8/8=
METAR EPTM 010000Z AUTO 15002KT ///001 ///013 02/00 Q1024 RMK 015 092 ///=


 

Copyright©2007 HS-PAF All rights reserved.